LEPP/PNA METAR and TAF weather

Enter ICAO airport designator
Station Type Date Time Source
LEPP METAR 2020/09/22 03:00 UTC NOAA

LEPP 220300Z AUTO 17005KT 9999 SCT023 13/12 Q1017


Station Type Date Time Source
LEPP Decoded METAR 2020/09/22 03:00 UTC NOAA

Pamplona / Noain, Spain (LEPP) 42-46N 001-38W 453M
Sep 21, 2020 - 11:00 PM EDT / 2020.09.22 0300 UTC
Wind: from the S (170 degrees) at 6 MPH (5 KT):0
Visibility: greater than 7 mile(s):0
Sky conditions: partly cloudy
Temperature: 55 F (13 C)
Dew Point: 53 F (12 C)
Relative Humidity: 93%
Pressure (altimeter): 30.03 in. Hg (1017 hPa)
ob: LEPP 220300Z AUTO 17005KT 9999 SCT023 13/12 Q1017
cycle: 3

Station Type Date Time Source
LEPP TAF 2020/09/22 03:27 UTC NOAA

TAF LEPP 220200Z 2203/2303 VRB04KT 9999 SCT050 TX25/2215Z TN12/2206Z
TEMPO 2203/2208 3000 BR PROB30
TEMPO 2209/2218 30010KT
TEMPO 2213/2218 RA SHRA SCT030TCU

Example: see airport list